Terminal Aerodrome Forecast
Issued by NWS North Platte, NE

Home | Current Version | Previous Version | Text Only | Print | Product List | Glossary Off
Versions: 1 2 3 4 5 6 7 8 9 10 11 12 13 14 15 16 17 18 19 20 21

000
FTUS43 KLBF 291100 CCA
TAFVTN
TAF COR
KVTN 291154Z 2912/3012 32012G18KT P6SM VCSH BKN012 OVC080
     FM291400 34009KT P6SM -SHRA SCT012 OVC040
     FM291600 35015G22KT P6SM -SHRA SCT012 OVC040
     FM292100 01013KT P6SM OVC025
     FM300000 01006KT P6SM OVC025=

USA.gov is the U.S. government's official web portal to all federal, state and local government web resources and services.